Latest Weather Observations for Oakey

IDQ60901

Issued at 11:21 pm EST Sunday 25 October 2020 (issued every 10 minutes, with the page automatically refreshed every 10 minutes)

About weather observations | Map of Brisbane area stations | Latest observations for Brisbane area | Other Formats
Station Details ID: 041359 Name: OAKEY AERO Lat: -27.40 Lon: 151.74 Height: 405.69 m
Data from the previous 72 hours. | See also: Recent months at Oakey
Date/Time
EST
Temp
°C
App
Temp
°C
Dew
Point
°C
Rel
Hum
%
Delta-T
°C
Wind Press
QNH
hPa
Press
MSL
hPa
Rain since
9am
mm
Dir  Spd
km/h
Gust
km/h
Spd
kts
Gust
kts
25/11:00pm 16.3 16.6 16.0 98 0.2 ESE 9 11 5 6 1012.4 1011.0 40.2
25/10:30pm 16.2 16.8 15.9 98 0.2 ESE 7 9 4 5 1012.5 1011.1 40.2
25/10:00pm 16.2 16.1 15.9 98 0.2 SE 11 15 6 8 1012.7 1011.4 39.6
25/09:30pm 16.1 15.2 15.8 98 0.2 SE 15 17 8 9 1013.1 1011.7 39.6
25/09:23pm 16.2 14.9 15.9 98 0.2 SE 17 26 9 14 1013.5 1012.1 39.6
25/09:00pm 16.1 17.3 15.8 98 0.2 NW 4 7 2 4 1013.3 1011.9 38.0
25/08:30pm 16.4 17.7 16.1 98 0.2 WSW 4 7 2 4 1013.2 1011.8 32.0
25/08:00pm 16.5 13.4 15.5 94 0.6 W 26 33 14 18 1013.0 1011.6 19.4
25/07:30pm 20.0 20.4 17.2 84 1.7 N 11 28 6 15 1011.2 1009.8 5.6
25/07:23pm 19.7 19.6 16.9 84 1.7 NNE 13 17 7 9 1011.2 1009.8 5.2
25/07:00pm 21.1 20.6 16.9 77 2.6 NNE 15 19 8 10 1010.7 1009.3 2.4
25/06:30pm 20.9 21.4 17.5 81 2.1 NE 11 17 6 9 1010.4 1008.9 2.4
25/06:00pm 20.7 22.1 17.9 84 1.8 SE 7 11 4 6 1009.8 1008.4 2.4
25/05:30pm 21.2 21.5 17.8 81 2.1 E 13 15 7 8 1009.7 1008.3 2.4
25/05:00pm 21.1 22.2 18.1 83 1.9 ESE 9 13 5 7 1009.8 1008.4 2.4
25/04:30pm 21.3 20.9 17.1 77 2.6 S 15 19 8 10 1009.8 1008.4 2.4
25/04:00pm 21.6 21.8 18.6 83 1.9 SSW 15 20 8 11 1009.3 1007.9 2.4
25/03:30pm 21.2 21.5 18.8 86 1.5 S 15 20 8 11 1009.5 1008.1 2.4
25/03:19pm 20.3 19.0 19.0 92 0.8 SW 24 33 13 18 1009.4 1008.0 2.4
25/03:01pm 21.6 20.1 15.4 68 3.8 NNW 17 20 9 11 1009.2 1007.8 2.2
25/03:00pm 22.0 20.4 15.1 65 4.2 NNW 17 24 9 13 1009.1 1007.7 2.0
25/02:30pm 25.9 24.6 15.9 54 6.2 W 17 20 9 11 1008.8 1007.4 0.0
25/02:00pm 26.6 24.1 14.0 46 7.6 WNW 20 26 11 14 1009.6 1008.2 0.0
25/01:30pm 26.5 20.0 12.9 43 8.1 W 39 50 21 27 1009.8 1008.4 0.0
25/01:18pm 26.1 19.8 13.6 46 7.5 NW 39 59 21 32 1009.8 1008.4 0.0
25/01:06pm 27.9 23.8 14.9 45 8.0 NW 30 50 16 27 1009.8 1008.4 0.0
25/01:00pm 27.4 24.9 16.1 50 7.1 NW 24 33 13 18 1009.9 1008.5 0.0
25/12:30pm 27.7 26.0 18.1 56 6.2 NW 24 35 13 19 1010.5 1009.0 0.0
25/12:00pm 26.4 24.2 18.8 63 4.9 WNW 28 39 15 21 1011.1 1009.7 0.0
25/11:30am 25.8 23.9 17.7 61 5.2 WNW 24 37 13 20 1011.7 1010.3 0.0
25/11:00am 24.4 21.8 17.9 67 4.1 W 28 35 15 19 1012.1 1010.7 0.0
25/10:30am 23.3 20.6 17.5 70 3.7 WNW 28 39 15 21 1012.3 1010.9 0.0
25/10:00am 24.5 22.7 18.7 70 3.7 WNW 26 39 14 21 1012.2 1010.8 0.0
25/09:30am 24.4 21.6 18.3 69 3.9 NW 30 37 16 20 1012.4 1011.0 0.0
25/09:00am 23.4 22.1 18.1 72 3.4 NW 22 28 12 15 1012.3 1010.9 7.0
25/08:30am 22.5 21.2 18.1 76 2.8 NW 22 30 12 16 1012.7 1011.4 7.0
25/08:00am 21.4 19.5 17.6 79 2.4 NW 24 33 13 18 1012.7 1011.4 7.0
25/07:30am 20.6 20.6 18.0 85 1.6 WNW 15 19 8 10 1012.6 1011.2 7.0
25/07:00am 19.9 22.0 18.0 89 1.2 SW 4 11 2 6 1012.5 1011.1 7.0
25/06:30am 18.2 19.6 17.9 98 0.2 SSE 7 9 4 5 1012.2 1010.8 7.0
25/06:00am 17.5 18.3 17.2 98 0.2 SSW 9 11 5 6 1011.9 1010.5 7.0
25/05:30am 17.0 17.9 16.7 98 0.2 SSE 7 9 4 5 1011.4 1010.0 7.0
25/05:00am 16.0 16.2 15.7 98 0.2 SE 9 9 5 5 1011.1 1009.7 7.0
25/04:30am 15.9 16.0 15.6 98 0.2 ESE 9 9 5 5 1010.9 1009.5 6.8
25/04:00am 15.7 16.1 15.2 97 0.3 E 7 9 4 5 1010.7 1009.3 6.8
25/03:30am 16.1 16.8 15.6 97 0.3 ENE 6 7 3 4 1010.4 1008.9 6.8
25/03:00am 16.3 17.0 15.7 96 0.4 ENE 6 7 3 4 1010.0 1008.6 6.8
25/02:30am 16.8 18.1 16.2 96 0.4 ENE 4 7 2 4 1009.8 1008.4 6.8
25/02:00am 17.2 18.1 16.6 96 0.4 NE 7 11 4 6 1009.8 1008.4 6.8
25/01:30am 17.4 17.3 16.9 97 0.3 NNE 13 15 7 8 1010.4 1008.9 6.8
25/01:00am 17.3 17.5 16.7 96 0.4 NNE 11 15 6 8 1010.6 1009.2 6.8
25/12:30am 17.3 17.5 16.7 96 0.4 NE 11 13 6 7 1010.4 1008.9 6.8
25/12:00am 17.3 16.7 16.7 96 0.4 NE 15 17 8 9 1010.5 1009.0 6.8
 
Date/Time
EST
Temp
°C
App
Temp
°C
Dew
Point
°C
Rel
Hum
%
Delta-T
°C
Wind Press
QNH
hPa
Press
MSL
hPa
Rain since
9am
mm
Dir  Spd
km/h
Gust
km/h
Spd
kts
Gust
kts
24/11:30pm 16.9 17.6 16.1 95 0.5 ENE 7 11 4 6 1010.9 1009.5 6.8
24/11:00pm 17.5 17.5 17.2 98 0.2 NE 13 17 7 9 1011.1 1009.7 6.8
24/10:30pm 16.1 16.3 15.8 98 0.2 ENE 9 11 5 6 1011.4 1010.0 6.8
24/10:00pm 16.0 16.7 15.5 97 0.3 SSE 6 9 3 5 1011.5 1010.1 6.8
24/09:30pm 16.0 16.1 15.5 97 0.3 ENE 9 11 5 6 1011.2 1009.8 6.8
24/09:00pm 16.3 16.4 15.5 95 0.5 ENE 9 13 5 7 1011.0 1009.6 6.8
24/08:30pm 17.3 17.3 16.3 94 0.6 NE 11 15 6 8 1011.1 1009.7 6.8
24/08:00pm 17.7 17.4 16.4 92 0.8 NNE 13 19 7 10 1010.9 1009.5 6.8
24/07:30pm 17.9 17.7 16.8 93 0.7 NNE 13 17 7 9 1011.1 1009.7 6.8
24/07:00pm 18.5 18.1 17.2 92 0.8 NE 15 19 8 10 1010.9 1009.5 6.8
24/06:30pm 18.9 18.2 17.4 91 0.9 NE 17 20 9 11 1010.9 1009.5 6.8
24/06:00pm 19.2 19.0 17.5 90 1.1 NE 15 19 8 10 1010.6 1009.2 6.8
24/05:30pm 19.6 20.0 18.1 91 0.9 ENE 13 17 7 9 1010.4 1008.9 6.8
24/05:00pm 19.7 20.3 18.5 93 0.8 NE 13 15 7 8 1010.4 1008.9 6.8
24/04:30pm 19.8 20.6 19.0 95 0.5 NE 13 17 7 9 1010.0 1008.6 6.8
24/04:00pm 19.8 20.6 19.0 95 0.5 NE 13 17 7 9 1010.0 1008.6 6.8
24/03:30pm 19.9 20.5 18.7 93 0.8 N 13 17 7 9 1010.5 1009.0 6.8
24/03:00pm 19.9 20.0 19.2 96 0.4 NNE 17 20 9 11 1011.0 1009.6 6.8
24/02:30pm 19.8 20.6 19.0 95 0.5 N 13 15 7 8 1011.4 1010.0 6.6
24/02:00pm 19.9 20.8 19.2 96 0.4 NNW 13 17 7 9 1011.8 1010.4 6.0
24/01:30pm 20.1 21.1 19.4 96 0.4 N 13 17 7 9 1012.0 1010.6 5.4
24/01:00pm 19.7 20.2 19.2 97 0.3 N 15 19 8 10 1012.5 1011.1 5.2
24/12:30pm 19.5 19.1 19.0 97 0.3 N 19 22 10 12 1012.8 1011.5 5.0
24/12:25pm 19.5 19.2 19.2 98 0.2 N 19 24 10 13 1013.0 1011.6 4.8
24/12:09pm 19.4 19.5 19.1 98 0.2 N 17 20 9 11 1013.2 1011.8 4.8
24/12:00pm 19.3 19.3 19.0 98 0.2 N 17 20 9 11 1013.3 1011.9 4.6
24/11:30am 19.0 18.8 18.5 97 0.3 N 17 20 9 11 1013.5 1012.1 3.6
24/11:00am 19.5 18.8 18.3 93 0.8 N 19 26 10 14 1013.8 1012.4 1.0
24/10:30am 21.2 19.0 17.0 77 2.6 N 24 32 13 17 1013.8 1012.4 0.0
24/10:00am 22.2 19.5 16.5 70 3.5 NNE 26 33 14 18 1013.7 1012.3 0.0
24/09:30am 21.5 18.8 16.5 73 3.1 N 26 35 14 19 1013.9 1012.5 0.0
24/09:00am 21.3 18.6 16.5 74 3.0 N 26 32 14 17 1014.1 1012.7 0.8
24/08:30am 21.4 18.9 17.2 77 2.6 N 26 35 14 19 1014.3 1012.9 0.8
24/08:00am 20.5 19.1 17.1 81 2.1 NNE 20 26 11 14 1014.2 1012.8 0.8
24/07:30am 19.4 18.6 17.2 87 1.4 N 17 20 9 11 1014.4 1013.0 0.8
24/07:00am 18.9 18.8 16.9 88 1.2 NNE 13 20 7 11 1014.1 1012.7 0.8
24/06:30am 19.4 19.0 16.1 81 2.0 NNE 13 17 7 9 1013.9 1012.5 0.4
24/06:00am 19.0 18.5 16.0 83 1.8 NE 13 17 7 9 1013.8 1012.4 0.4
24/05:30am 18.6 18.1 15.8 84 1.7 NNE 13 17 7 9 1013.7 1012.3 0.4
24/05:00am 18.4 17.0 15.5 83 1.7 NNE 17 24 9 13 1013.4 1012.0 0.4
24/04:30am 18.6 17.7 15.8 84 1.7 NNE 15 22 8 12 1013.3 1011.9 0.4
24/04:00am 18.1 18.3 15.7 86 1.4 NNE 9 13 5 7 1013.2 1011.8 0.4
24/03:30am 18.2 17.3 15.8 86 1.4 NNE 15 20 8 11 1013.2 1011.8 0.4
24/03:00am 18.6 16.7 15.7 83 1.7 N 20 28 11 15 1013.2 1011.8 0.4
24/02:30am 18.5 17.0 15.2 81 2.0 N 17 24 9 13 1013.3 1011.9 0.4
24/02:00am 19.6 17.6 13.8 69 3.4 NNE 17 28 9 15 1013.1 1011.7 0.0
24/01:30am 19.6 15.6 13.1 66 3.8 NNE 26 33 14 18 1012.2 1010.8 0.0
24/01:00am 19.8 15.7 12.6 63 4.1 NNE 26 33 14 18 1012.6 1011.2 0.0
24/12:30am 19.8 15.7 12.6 63 4.1 NE 26 32 14 17 1013.3 1011.9 0.0
24/12:00am 20.1 17.3 13.3 65 4.0 NNE 20 28 11 15 1014.0 1012.6 0.0
 
Date/Time
EST
Temp
°C
App
Temp
°C
Dew
Point
°C
Rel
Hum
%
Delta-T
°C
Wind Press
QNH
hPa
Press
MSL
hPa
Rain since
9am
mm
Dir  Spd
km/h
Gust
km/h
Spd
kts
Gust
kts
23/11:30pm 19.9 18.4 15.3 75 2.8 NE 17 20 9 11 1013.8 1012.4 0.0
23/11:00pm 20.1 18.4 15.7 76 2.7 NE 19 22 10 12 1013.8 1012.4 0.0
23/10:30pm 20.4 19.3 16.4 78 2.5 ENE 17 24 9 13 1013.9 1012.5 0.0
23/10:00pm 20.6 19.3 16.8 79 2.3 ENE 19 26 10 14 1014.1 1012.7 0.0
23/09:30pm 20.3 19.3 16.5 79 2.3 ENE 17 20 9 11 1013.9 1012.5 0.0
23/09:00pm 20.8 18.8 16.4 76 2.7 ENE 22 26 12 14 1013.7 1012.3 0.0
23/08:30pm 21.2 19.1 16.2 73 3.1 ENE 22 28 12 15 1013.5 1012.1 0.0
23/08:00pm 22.0 19.2 16.3 70 3.5 ENE 26 35 14 19 1013.2 1011.8 0.0
23/07:30pm 22.5 20.5 14.9 62 4.6 ENE 19 24 10 13 1013.3 1011.9 0.0
23/07:00pm 22.8 21.1 14.6 60 4.9 ENE 17 24 9 13 1013.1 1011.7 0.0
23/06:30pm 23.6 21.4 14.9 58 5.3 ENE 20 28 11 15 1013.0 1011.6 0.0
23/06:00pm 24.0 21.4 15.0 57 5.5 ENE 22 26 12 14 1012.6 1011.2 0.0
23/05:30pm 24.8 22.4 15.4 56 5.8 NE 22 28 12 15 1012.4 1011.0 0.0
23/05:00pm 25.1 22.4 15.7 56 5.8 NE 24 32 13 17 1012.1 1010.7 0.0
23/04:30pm 25.5 22.9 15.8 55 6.0 NE 24 32 13 17 1011.9 1010.5 0.0
23/04:00pm 26.2 23.6 15.9 53 6.4 NNE 24 30 13 16 1011.9 1010.5 0.0
23/03:30pm 26.1 23.7 15.5 52 6.5 NNE 22 35 12 19 1011.9 1010.5 0.0
23/03:00pm 26.2 24.7 16.7 56 6.0 NE 20 33 11 18 1012.2 1010.8 0.0
23/02:30pm 25.6 23.1 16.2 56 5.9 NE 24 32 13 17 1012.6 1011.2 0.0
23/02:00pm 25.5 22.8 16.6 58 5.6 NE 26 35 14 19 1013.1 1011.7 0.0
23/01:30pm 25.8 22.4 15.8 54 6.2 NNE 28 37 15 20 1013.4 1012.0 0.0
23/01:00pm 26.0 24.0 16.5 55 6.0 NE 22 30 12 16 1014.2 1012.8 0.0
23/12:30pm 25.6 23.8 17.8 62 5.0 NNE 24 32 13 17 1014.8 1013.4 0.0
23/12:00pm 23.6 21.7 16.6 65 4.4 NE 22 28 12 15 1015.3 1014.0 0.0
23/11:30am 23.4 22.1 16.7 66 4.2 NE 19 28 10 15 1015.4 1014.1 0.0
23/11:00am 23.2 21.8 16.5 66 4.2 N 19 24 10 13 1016.0 1014.6 0.0
23/10:30am 23.2 21.5 16.3 65 4.3 N 20 28 11 15 1016.3 1014.9 0.0
23/10:00am 22.7 21.6 16.3 67 3.9 NNE 17 24 9 13 1016.4 1015.0 0.0
23/09:30am 22.2 21.0 16.2 69 3.7 NNE 17 24 9 13 1016.5 1015.1 0.0
23/09:00am 21.6 19.8 15.9 70 3.5 NNE 20 26 11 14 1016.6 1015.2 0.0
23/08:30am 22.0 19.9 16.1 69 3.6 NE 22 30 12 16 1016.5 1015.1 0.0
23/08:00am 21.2 18.9 16.6 75 2.8 NE 24 32 13 17 1016.1 1014.7 0.0
23/07:30am 19.9 17.8 16.3 80 2.2 ENE 22 28 12 15 1016.2 1014.8 0.0
23/07:00am 18.9 17.7 16.1 84 1.7 NNE 17 24 9 13 1016.7 1015.3 0.0
23/06:30am 19.0 17.8 16.2 84 1.7 NE 17 22 9 12 1016.1 1014.7 0.0
23/06:00am 18.2 17.9 16.5 90 1.0 NE 13 17 7 9 1015.7 1014.3 0.0
23/05:30am 17.3 18.0 16.2 93 0.7 NE 7 13 4 7 1015.3 1014.0 0.0
23/05:00am 17.3 16.8 16.0 92 0.8 NE 13 19 7 10 1015.0 1013.7 0.0
23/04:30am 17.1 15.7 15.6 91 0.9 ENE 17 22 9 12 1014.4 1013.0 0.0
23/04:00am 17.1 15.5 16.0 93 0.7 E 19 24 10 13 1014.2 1012.8 0.0
23/03:30am 16.9 16.0 15.8 93 0.7 E 15 19 8 10 1014.4 1013.0 0.0
23/03:00am 17.0 16.2 16.2 95 0.5 E 15 17 8 9 1014.6 1013.2 0.0
23/02:30am 16.3 15.9 15.2 93 0.6 E 11 13 6 7 1014.8 1013.4 0.0
23/02:00am 17.2 16.9 15.5 90 1.0 ENE 11 15 6 8 1015.1 1013.8 0.0
23/01:30am 17.1 16.0 15.4 90 1.0 E 15 20 8 11 1015.0 1013.7 0.0
23/01:00am 17.6 16.2 15.6 88 1.2 ENE 17 24 9 13 1015.4 1014.1 0.0
23/12:45am 17.9 16.0 15.7 87 1.3 ENE 20 26 11 14 1015.4 1014.1 0.0
23/12:30am 18.2 15.5 15.6 85 1.6 ENE 24 33 13 18 1015.7 1014.3 0.0
23/12:21am 18.5 15.8 15.7 84 1.7 NE 24 37 13 20 1015.7 1014.3 0.0
23/12:00am 18.5 15.9 15.9 85 1.6 ENE 24 32 13 17 1015.8 1014.4 0.0
 
Date/Time
EST
Temp
°C
App
Temp
°C
Dew
Point
°C
Rel
Hum
%
Delta-T
°C
Wind Press
QNH
hPa
Press
MSL
hPa
Rain since
9am
mm
Dir  Spd
km/h
Gust
km/h
Spd
kts
Gust
kts
22/11:30pm 18.5 16.9 16.1 86 1.5 ENE 19 28 10 15 1016.3 1014.9 0.0

Latest Capital City Observations: Canberra | Sydney | Melbourne | Brisbane | Adelaide | Perth | Hobart | Darwin

Other formats

Comma delimited format used in spreadsheet applications
http://www.bom.gov.au/fwo/IDQ60901/IDQ60901.94552.axf

JavaScript Object Notation format (JSON) in row-major order
http://www.bom.gov.au/fwo/IDQ60901/IDQ60901.94552.json

Data quality

Most of these data are generated automatically and are frequently updated. Quality checks on data are not normally performed. It is possible for incorrect values to appear. Refer to information at About Latest Weather Observations and please check the disclaimer before using these data.